Time,TemperatureF,DewpointF,PressureIn,WindDirection,WindDirectionDegrees,WindSpeedMPH,WindSpeedGustMPH,Humidity,HourlyPrecipIn,Conditions,Clouds,dailyrainin,SoftwareType,DateUTC
2013-01-10 00:01:00,50.7,50.7,30.01,SW,232,2.0,10.0,100,0.00,,,0.00,Wunderground v.1.15,2013-01-10 06:01:00,
2013-01-10 00:07:00,50.4,50.4,30.01,WSW,243,1.0,10.0,100,0.00,,,0.00,Wunderground v.1.15,2013-01-10 06:07:00,
2013-01-10 00:12:00,50.3,50.3,30.01,WSW,248,1.0,10.0,100,0.00,,,0.00,Wunderground v.1.15,2013-01-10 06:12:00,
2013-01-10 00:17:00,50.2,50.2,30.00,WSW,238,2.0,10.0,100,0.00,,,0.00,Wunderground v.1.15,2013-01-10 06:17:00,
2013-01-10 00:22:00,50.0,50.0,30.00,West,262,2.0,10.0,100,0.00,,,0.00,Wunderground v.1.15,2013-01-10 06:22:00,
2013-01-10 00:27:00,49.8,49.8,30.00,West,267,1.0,10.0,100,0.00,,,0.00,Wunderground v.1.15,2013-01-10 06:27:00,
2013-01-10 00:32:00,49.8,49.8,30.00,West,259,1.0,10.0,100,0.00,,,0.00,Wunderground v.1.15,2013-01-10 06:32:00,
2013-01-10 00:38:00,49.6,49.6,30.00,WSW,239,1.0,10.0,100,0.00,,,0.00,Wunderground v.1.15,2013-01-10 06:38:00,
2013-01-10 00:44:00,49.3,49.3,30.00,WSW,250,2.0,10.0,100,0.00,,,0.00,Wunderground v.1.15,2013-01-10 06:44:00,
2013-01-10 00:49:00,49.3,49.3,30.01,West,277,3.0,10.0,100,0.00,,,0.00,Wunderground v.1.15,2013-01-10 06:49:00,
2013-01-10 00:55:00,49.5,49.5,30.01,West,259,4.0,10.0,100,0.00,,,0.00,Wunderground v.1.15,2013-01-10 06:55:00,
2013-01-10 01:00:00,49.9,49.9,30.01,WSW,250,4.0,10.0,100,0.00,,,0.00,Wunderground v.1.15,2013-01-10 07:00:00,
2013-01-10 01:06:00,50.3,50.3,30.01,West,259,5.0,10.0,100,0.00,,,0.00,Wunderground v.1.15,2013-01-10 07:06:00,
2013-01-10 01:12:00,50.4,50.4,30.01,WSW,253,6.0,10.0,100,0.00,,,0.00,Wunderground v.1.15,2013-01-10 07:12:00,
2013-01-10 01:18:00,50.4,50.4,30.01,WSW,249,6.0,10.0,100,0.00,,,0.00,Wunderground v.1.15,2013-01-10 07:18:00,
2013-01-10 01:23:00,50.3,50.3,30.00,West,263,6.0,10.0,100,0.00,,,0.00,Wunderground v.1.15,2013-01-10 07:23:00,
2013-01-10 01:28:00,50.5,50.5,30.00,West,278,6.0,10.0,100,0.00,,,0.00,Wunderground v.1.15,2013-01-10 07:28:00,
2013-01-10 01:33:00,50.4,50.4,30.00,West,259,6.0,10.0,100,0.00,,,0.00,Wunderground v.1.15,2013-01-10 07:33:00,
2013-01-10 01:38:00,50.3,50.3,30.00,West,261,5.0,10.0,100,0.00,,,0.00,Wunderground v.1.15,2013-01-10 07:38:00,
2013-01-10 01:43:00,50.4,50.4,29.99,West,267,6.0,10.0,100,0.00,,,0.00,Wunderground v.1.15,2013-01-10 07:43:00,
2013-01-10 01:48:00,50.8,50.8,29.99,West,260,6.0,10.0,100,0.00,,,0.00,Wunderground v.1.15,2013-01-10 07:48:00,
2013-01-10 01:54:00,50.5,50.5,29.99,West,269,6.0,10.0,100,0.00,,,0.00,Wunderground v.1.15,2013-01-10 07:54:00,
2013-01-10 02:00:00,50.4,50.4,29.99,West,270,5.0,10.0,100,0.00,,,0.00,Wunderground v.1.15,2013-01-10 08:00:00,
2013-01-10 02:06:00,50.1,50.1,29.98,WSW,253,6.0,10.0,100,0.00,,,0.00,Wunderground v.1.15,2013-01-10 08:06:00,
2013-01-10 02:11:00,50.0,50.0,29.99,SW,229,6.0,10.0,100,0.00,,,0.00,Wunderground v.1.15,2013-01-10 08:11:00,
2013-01-10 02:17:00,50.0,50.0,29.99,West,267,6.0,10.0,100,0.00,,,0.00,Wunderground v.1.15,2013-01-10 08:17:00,
2013-01-10 02:23:00,49.9,49.9,29.99,WSW,239,5.0,10.0,100,0.00,,,0.00,Wunderground v.1.15,2013-01-10 08:23:00,
2013-01-10 02:28:00,49.7,49.7,29.99,WSW,246,6.0,10.0,100,0.00,,,0.00,Wunderground v.1.15,2013-01-10 08:28:00,
2013-01-10 02:33:00,49.6,49.6,29.99,WSW,253,6.0,10.0,100,0.00,,,0.00,Wunderground v.1.15,2013-01-10 08:33:00,
2013-01-10 02:39:00,49.6,49.6,30.00,WSW,243,6.0,10.0,100,0.00,,,0.00,Wunderground v.1.15,2013-01-10 08:39:00,
2013-01-10 02:44:00,49.6,49.6,30.00,West,262,7.0,10.0,100,0.00,,,0.00,Wunderground v.1.15,2013-01-10 08:44:00,
2013-01-10 02:50:00,49.6,49.6,30.00,West,274,8.0,10.0,100,0.00,,,0.00,Wunderground v.1.15,2013-01-10 08:50:00,
2013-01-10 02:55:00,49.6,49.6,30.00,WSW,249,8.0,12.0,100,0.00,,,0.00,Wunderground v.1.15,2013-01-10 08:55:00,
2013-01-10 03:00:00,49.8,49.8,30.00,West,260,9.0,11.0,100,0.00,,,0.00,Wunderground v.1.15,2013-01-10 09:00:00,
2013-01-10 03:05:00,49.8,49.8,30.00,WSW,239,9.0,11.0,100,0.00,,,0.00,Wunderground v.1.15,2013-01-10 09:05:00,
2013-01-10 03:10:00,49.9,49.9,30.01,West,269,9.0,9.0,100,0.00,,,0.00,Wunderground v.1.15,2013-01-10 09:10:00,
2013-01-10 03:16:00,49.9,49.9,30.01,West,278,9.0,13.0,100,0.00,,,0.00,Wunderground v.1.15,2013-01-10 09:16:00,
2013-01-10 03:21:00,49.7,49.7,30.00,WSW,257,10.0,12.0,100,0.00,,,0.00,Wunderground v.1.15,2013-01-10 09:21:00,
2013-01-10 03:27:00,49.3,49.3,30.00,WNW,284,10.0,12.0,100,0.00,,,0.00,Wunderground v.1.15,2013-01-10 09:27:00,
2013-01-10 03:32:00,49.2,49.2,30.01,West,259,8.0,10.0,100,0.00,,,0.00,Wunderground v.1.15,2013-01-10 09:32:00,
2013-01-10 03:37:00,49.1,49.1,30.01,West,277,8.0,10.0,100,0.00,,,0.00,Wunderground v.1.15,2013-01-10 09:37:00,
2013-01-10 03:42:00,49.0,49.0,30.01,WSW,257,8.0,11.0,100,0.00,,,0.00,Wunderground v.1.15,2013-01-10 09:42:00,
2013-01-10 03:48:00,48.9,48.9,30.02,WSW,243,9.0,12.0,100,0.00,,,0.00,Wunderground v.1.15,2013-01-10 09:48:00,
2013-01-10 03:54:00,48.8,48.8,30.02,WSW,256,8.0,10.0,100,0.00,,,0.00,Wunderground v.1.15,2013-01-10 09:54:00,
2013-01-10 03:59:00,48.7,48.7,30.02,West,260,8.0,10.0,100,0.00,,,0.00,Wunderground v.1.15,2013-01-10 09:59:00,
2013-01-10 04:04:00,48.4,48.4,30.01,WSW,253,6.0,10.0,100,0.00,,,0.00,Wunderground v.1.15,2013-01-10 10:04:00,
2013-01-10 04:09:00,48.1,48.1,30.01,WSW,246,5.0,10.0,100,0.00,,,0.00,Wunderground v.1.15,2013-01-10 10:09:00,
2013-01-10 04:14:00,48.0,48.0,30.01,West,259,5.0,10.0,100,0.00,,,0.00,Wunderground v.1.15,2013-01-10 10:14:00,
2013-01-10 04:20:00,47.9,47.9,30.01,WSW,255,5.0,10.0,100,0.00,,,0.00,Wunderground v.1.15,2013-01-10 10:20:00,
2013-01-10 04:25:00,47.7,47.7,30.01,WSW,250,4.0,10.0,100,0.00,,,0.00,Wunderground v.1.15,2013-01-10 10:25:00,
2013-01-10 04:31:00,47.5,47.5,30.00,West,260,4.0,10.0,100,0.00,,,0.00,Wunderground v.1.15,2013-01-10 10:31:00,
2013-01-10 04:36:00,47.4,47.4,30.00,WSW,245,4.0,10.0,100,0.00,,,0.00,Wunderground v.1.15,2013-01-10 10:36:00,
2013-01-10 04:41:00,47.2,47.2,30.00,WSW,243,4.0,10.0,100,0.00,,,0.00,Wunderground v.1.15,2013-01-10 10:41:00,
2013-01-10 04:47:00,47.1,47.1,30.00,WSW,258,4.0,10.0,100,0.00,,,0.00,Wunderground v.1.15,2013-01-10 10:47:00,
2013-01-10 04:53:00,47.1,47.1,30.00,SW,236,4.0,10.0,100,0.00,,,0.00,Wunderground v.1.15,2013-01-10 10:53:00,
2013-01-10 04:58:00,47.1,47.1,30.00,WSW,240,4.0,10.0,100,0.00,,,0.00,Wunderground v.1.15,2013-01-10 10:58:00,
2013-01-10 05:04:00,47.1,47.1,29.99,WSW,252,4.0,10.0,100,0.00,,,0.00,Wunderground v.1.15,2013-01-10 11:04:00,
2013-01-10 05:09:00,47.0,47.0,29.99,SW,222,5.0,10.0,100,0.00,,,0.00,Wunderground v.1.15,2013-01-10 11:09:00,
2013-01-10 05:14:00,46.9,46.9,29.99,WSW,240,5.0,10.0,100,0.00,,,0.00,Wunderground v.1.15,2013-01-10 11:14:00,
2013-01-10 05:19:00,46.9,46.9,29.99,WSW,242,4.0,10.0,100,0.00,,,0.00,Wunderground v.1.15,2013-01-10 11:19:00,
2013-01-10 05:24:00,46.7,46.7,29.99,WSW,257,5.0,10.0,100,0.00,,,0.00,Wunderground v.1.15,2013-01-10 11:24:00,
2013-01-10 05:29:00,46.7,46.7,29.99,WSW,256,5.0,10.0,100,0.00,,,0.00,Wunderground v.1.15,2013-01-10 11:29:00,
2013-01-10 05:34:00,46.6,46.6,29.99,WSW,250,5.0,10.0,100,0.00,,,0.00,Wunderground v.1.15,2013-01-10 11:34:00,
2013-01-10 05:39:00,46.6,46.6,29.99,West,278,6.0,10.0,100,0.00,,,0.00,Wunderground v.1.15,2013-01-10 11:39:00,
2013-01-10 05:44:00,46.7,46.7,29.98,WSW,251,6.0,10.0,100,0.00,,,0.00,Wunderground v.1.15,2013-01-10 11:44:00,
2013-01-10 05:50:00,46.8,46.8,29.98,West,259,6.0,6.0,100,0.00,,,0.00,Wunderground v.1.15,2013-01-10 11:50:00,
2013-01-10 05:55:00,46.8,46.8,29.99,WSW,245,6.0,10.0,100,0.00,,,0.00,Wunderground v.1.15,2013-01-10 11:55:00,
2013-01-10 06:00:00,46.8,46.8,29.98,WSW,240,5.0,10.0,100,0.00,,,0.00,Wunderground v.1.15,2013-01-10 12:00:00,
2013-01-10 06:05:00,46.7,46.7,29.98,WSW,249,5.0,10.0,100,0.00,,,0.00,Wunderground v.1.15,2013-01-10 12:05:00,
2013-01-10 06:11:00,46.6,46.6,29.99,WSW,250,5.0,10.0,100,0.00,,,0.00,Wunderground v.1.15,2013-01-10 12:11:00,
2013-01-10 06:16:00,46.6,46.6,29.99,WSW,248,5.0,10.0,100,0.00,,,0.00,Wunderground v.1.15,2013-01-10 12:16:00,
2013-01-10 06:21:00,46.5,46.5,29.99,WSW,249,5.0,6.0,100,0.00,,,0.00,Wunderground v.1.15,2013-01-10 12:21:00,
2013-01-10 06:26:00,46.5,46.5,29.99,WSW,253,5.0,10.0,100,0.00,,,0.00,Wunderground v.1.15,2013-01-10 12:26:00,
2013-01-10 06:31:00,46.5,46.5,29.99,WSW,253,6.0,10.0,100,0.00,,,0.00,Wunderground v.1.15,2013-01-10 12:31:00,
2013-01-10 06:36:00,46.4,46.4,29.99,WSW,246,5.0,10.0,100,0.00,,,0.00,Wunderground v.1.15,2013-01-10 12:36:00,
2013-01-10 06:42:00,46.3,46.3,29.99,WSW,252,6.0,10.0,100,0.00,,,0.00,Wunderground v.1.15,2013-01-10 12:42:00,
2013-01-10 06:47:00,46.3,46.3,29.99,West,262,5.0,10.0,100,0.00,,,0.00,Wunderground v.1.15,2013-01-10 12:47:00,
2013-01-10 06:52:00,46.2,46.2,29.99,WSW,238,6.0,10.0,100,0.00,,,0.00,Wunderground v.1.15,2013-01-10 12:52:00,
2013-01-10 06:57:00,46.0,46.0,29.99,WSW,252,6.0,10.0,100,0.00,,,0.00,Wunderground v.1.15,2013-01-10 12:57:00,
2013-01-10 07:02:00,46.0,46.0,29.99,WSW,243,7.0,10.0,100,0.00,,,0.00,Wunderground v.1.15,2013-01-10 13:02:00,
2013-01-10 07:07:00,45.8,45.8,29.99,WSW,256,6.0,10.0,100,0.00,,,0.00,Wunderground v.1.15,2013-01-10 13:07:00,
2013-01-10 07:12:00,45.8,45.8,29.99,West,266,7.0,12.0,100,0.00,,,0.00,Wunderground v.1.15,2013-01-10 13:12:00,
2013-01-10 07:17:00,45.7,45.7,29.99,WSW,257,7.0,12.0,100,0.00,,,0.00,Wunderground v.1.15,2013-01-10 13:17:00,
2013-01-10 07:23:00,45.6,45.6,29.99,West,278,8.0,10.0,100,0.00,,,0.00,Wunderground v.1.15,2013-01-10 13:23:00,
2013-01-10 07:28:00,45.6,45.6,30.00,West,259,9.0,14.0,100,0.00,,,0.00,Wunderground v.1.15,2013-01-10 13:28:00,
2013-01-10 07:33:00,45.1,44.6,30.00,West,269,10.0,13.0,98,0.00,,,0.00,Wunderground v.1.15,2013-01-10 13:33:00,
2013-01-10 07:39:00,44.2,42.9,30.00,West,266,12.0,15.0,95,0.00,,,0.00,Wunderground v.1.15,2013-01-10 13:39:00,
2013-01-10 07:44:00,43.8,42.5,30.01,West,273,13.0,14.0,95,0.00,,,0.00,Wunderground v.1.15,2013-01-10 13:44:00,
2013-01-10 07:49:00,43.5,41.6,30.01,WSW,246,12.0,16.0,93,0.00,,,0.00,Wunderground v.1.15,2013-01-10 13:49:00,
2013-01-10 07:54:00,43.3,41.4,30.01,West,259,12.0,14.0,93,0.00,,,0.00,Wunderground v.1.15,2013-01-10 13:54:00,
2013-01-10 07:59:00,43.1,41.2,30.01,West,264,11.0,14.0,93,0.00,,,0.00,Wunderground v.1.15,2013-01-10 13:59:00,
2013-01-10 08:05:00,43.0,41.4,30.02,WSW,256,8.0,10.0,94,0.00,,,0.00,Wunderground v.1.15,2013-01-10 14:05:00,
2013-01-10 08:10:00,43.0,41.1,30.02,SW,231,7.0,7.0,93,0.00,,,0.00,Wunderground v.1.15,2013-01-10 14:10:00,
2013-01-10 08:16:00,43.0,41.1,30.01,West,266,7.0,10.0,93,0.00,,,0.00,Wunderground v.1.15,2013-01-10 14:16:00,
2013-01-10 08:21:00,43.1,41.2,30.01,WNW,285,7.0,10.0,93,0.00,,,0.00,Wunderground v.1.15,2013-01-10 14:21:00,
2013-01-10 08:26:00,43.2,41.0,30.01,WNW,284,8.0,12.0,92,0.00,,,0.00,Wunderground v.1.15,2013-01-10 14:26:00,
2013-01-10 08:32:00,43.4,41.5,30.01,WNW,285,10.0,11.0,93,0.00,,,0.00,Wunderground v.1.15,2013-01-10 14:32:00,
2013-01-10 08:37:00,43.6,41.1,30.01,WNW,288,10.0,13.0,91,0.00,,,0.00,Wunderground v.1.15,2013-01-10 14:37:00,
2013-01-10 08:43:00,43.8,41.6,30.01,West,280,11.0,12.0,92,0.00,,,0.00,Wunderground v.1.15,2013-01-10 14:43:00,
2013-01-10 08:49:00,44.0,41.5,30.01,West,276,11.0,13.0,91,0.00,,,0.00,Wunderground v.1.15,2013-01-10 14:49:00,
2013-01-10 08:55:00,44.3,41.6,30.01,West,266,12.0,13.0,90,0.00,,,0.00,Wunderground v.1.15,2013-01-10 14:55:00,
2013-01-10 09:01:00,44.6,41.6,30.02,West,271,12.0,15.0,89,0.00,,,0.00,Wunderground v.1.15,2013-01-10 15:01:00,
2013-01-10 09:07:00,44.9,42.1,30.03,NW,304,12.0,15.0,90,0.00,,,0.00,Wunderground v.1.15,2013-01-10 15:07:00,
2013-01-10 09:12:00,45.2,42.2,30.03,West,279,11.0,14.0,89,0.00,,,0.00,Wunderground v.1.15,2013-01-10 15:12:00,
2013-01-10 09:17:00,45.4,42.1,30.03,WNW,291,12.0,15.0,88,0.00,,,0.00,Wunderground v.1.15,2013-01-10 15:17:00,
2013-01-10 09:23:00,45.7,42.3,30.03,West,278,12.0,12.0,88,0.00,,,0.00,Wunderground v.1.15,2013-01-10 15:23:00,
2013-01-10 09:29:00,45.7,42.1,30.03,West,274,12.0,17.0,87,0.00,,,0.00,Wunderground v.1.15,2013-01-10 15:29:00,
2013-01-10 09:34:00,45.9,42.5,30.04,West,278,13.0,15.0,88,0.00,,,0.00,Wunderground v.1.15,2013-01-10 15:34:00,
2013-01-10 09:39:00,45.9,42.2,30.04,NW,304,12.0,15.0,87,0.00,,,0.00,Wunderground v.1.15,2013-01-10 15:39:00,
2013-01-10 09:44:00,45.6,42.3,30.04,WNW,301,13.0,21.0,88,0.00,,,0.00,Wunderground v.1.15,2013-01-10 15:44:00,
2013-01-10 09:50:00,46.1,43.0,30.04,WNW,302,15.0,17.0,89,0.00,,,0.00,Wunderground v.1.15,2013-01-10 15:50:00,
2013-01-10 09:56:00,46.5,42.5,30.04,WNW,300,15.0,17.0,86,0.00,,,0.00,Wunderground v.1.15,2013-01-10 15:56:00,
2013-01-10 10:02:00,46.5,42.8,30.05,NW,312,14.0,14.0,87,0.00,,,0.00,Wunderground v.1.15,2013-01-10 16:02:00,
2013-01-10 10:08:00,46.5,42.5,30.05,WNW,302,13.0,14.0,86,0.00,,,0.00,Wunderground v.1.15,2013-01-10 16:08:00,
2013-01-10 10:13:00,46.6,42.6,30.05,WNW,288,13.0,15.0,86,0.00,,,0.00,Wunderground v.1.15,2013-01-10 16:13:00,
2013-01-10 10:18:00,46.9,43.2,30.05,WNW,295,13.0,18.0,87,0.00,,,0.00,Wunderground v.1.15,2013-01-10 16:18:00,
2013-01-10 10:23:00,47.1,43.1,30.04,WNW,287,13.0,15.0,86,0.00,,,0.00,Wunderground v.1.15,2013-01-10 16:23:00,
2013-01-10 10:28:00,47.4,43.7,30.04,WNW,290,13.0,17.0,87,0.00,,,0.00,Wunderground v.1.15,2013-01-10 16:28:00,
2013-01-10 10:34:00,48.3,44.0,30.03,WNW,297,12.0,13.0,85,0.00,,,0.00,Wunderground v.1.15,2013-01-10 16:34:00,
2013-01-10 10:40:00,48.7,44.4,30.03,WNW,291,11.0,11.0,85,0.00,,,0.00,Wunderground v.1.15,2013-01-10 16:40:00,
2013-01-10 10:46:00,48.9,44.6,30.03,West,277,12.0,18.0,85,0.00,,,0.00,Wunderground v.1.15,2013-01-10 16:46:00,
2013-01-10 10:52:00,49.3,44.4,30.02,WNW,285,12.0,15.0,83,0.00,,,0.00,Wunderground v.1.15,2013-01-10 16:52:00,
2013-01-10 10:58:00,49.8,44.5,30.02,WNW,287,14.0,18.0,82,0.00,,,0.00,Wunderground v.1.15,2013-01-10 16:58:00,
2013-01-10 11:04:00,50.1,44.8,30.02,WNW,296,16.0,21.0,82,0.00,,,0.00,Wunderground v.1.15,2013-01-10 17:04:00,
2013-01-10 11:10:00,50.6,45.3,30.02,WNW,296,16.0,17.0,82,0.00,,,0.00,Wunderground v.1.15,2013-01-10 17:10:00,
2013-01-10 11:16:00,51.2,45.2,30.01,WNW,295,16.0,22.0,80,0.00,,,0.00,Wunderground v.1.15,2013-01-10 17:16:00,
2013-01-10 11:22:00,51.6,45.3,30.01,WNW,285,15.0,15.0,79,0.00,,,0.00,Wunderground v.1.15,2013-01-10 17:22:00,
2013-01-10 11:27:00,51.4,44.8,30.01,WNW,294,14.0,15.0,78,0.00,,,0.00,Wunderground v.1.15,2013-01-10 17:27:00,
2013-01-10 11:32:00,51.7,45.4,30.02,West,278,14.0,16.0,79,0.00,,,0.00,Wunderground v.1.15,2013-01-10 17:32:00,
2013-01-10 11:38:00,51.6,45.0,30.02,WNW,284,14.0,17.0,78,0.00,,,0.00,Wunderground v.1.15,2013-01-10 17:38:00,
2013-01-10 11:43:00,51.8,45.5,30.02,WNW,295,13.0,14.0,79,0.00,,,0.00,Wunderground v.1.15,2013-01-10 17:43:00,
2013-01-10 11:48:00,52.4,46.1,30.02,West,273,11.0,14.0,79,0.00,,,0.00,Wunderground v.1.15,2013-01-10 17:48:00,
2013-01-10 11:53:00,52.6,45.6,30.02,WNW,283,10.0,10.0,77,0.00,,,0.00,Wunderground v.1.15,2013-01-10 17:53:00,
2013-01-10 11:59:00,52.2,45.5,30.02,West,274,10.0,11.0,78,0.00,,,0.00,Wunderground v.1.15,2013-01-10 17:59:00,
2013-01-10 12:04:00,51.9,45.6,30.02,West,274,10.0,12.0,79,0.00,,,0.00,Wunderground v.1.15,2013-01-10 18:04:00,
2013-01-10 12:09:00,51.8,45.5,30.01,West,281,10.0,14.0,79,0.00,,,0.00,Wunderground v.1.15,2013-01-10 18:09:00,
2013-01-10 12:14:00,52.1,45.4,30.01,WNW,285,10.0,12.0,78,0.00,,,0.00,Wunderground v.1.15,2013-01-10 18:14:00,
2013-01-10 12:20:00,52.4,45.4,30.01,West,281,10.0,10.0,77,0.00,,,0.00,Wunderground v.1.15,2013-01-10 18:20:00,
2013-01-10 12:26:00,52.6,45.6,30.00,West,276,10.0,13.0,77,0.00,,,0.00,Wunderground v.1.15,2013-01-10 18:26:00,
2013-01-10 12:31:00,52.8,45.8,30.00,WSW,256,10.0,12.0,77,0.00,,,0.00,Wunderground v.1.15,2013-01-10 18:31:00,
2013-01-10 12:36:00,52.6,45.9,30.00,West,280,10.0,12.0,78,0.00,,,0.00,Wunderground v.1.15,2013-01-10 18:36:00,
2013-01-10 12:41:00,52.5,45.8,30.00,West,281,9.0,11.0,78,0.00,,,0.00,Wunderground v.1.15,2013-01-10 18:41:00,
2013-01-10 12:46:00,52.5,46.2,30.00,WSW,256,8.0,11.0,79,0.00,,,0.00,Wunderground v.1.15,2013-01-10 18:46:00,
2013-01-10 12:51:00,52.4,45.7,30.00,West,280,7.0,10.0,78,0.00,,,0.00,Wunderground v.1.15,2013-01-10 18:51:00,
2013-01-10 12:56:00,52.5,46.2,30.00,WSW,250,7.0,12.0,79,0.00,,,0.00,Wunderground v.1.15,2013-01-10 18:56:00,
2013-01-10 13:02:00,52.7,46.0,30.00,West,270,7.0,10.0,78,0.00,,,0.00,Wunderground v.1.15,2013-01-10 19:02:00,
2013-01-10 13:07:00,52.6,45.9,30.00,West,281,7.0,10.0,78,0.00,,,0.00,Wunderground v.1.15,2013-01-10 19:07:00,
2013-01-10 13:13:00,52.6,45.9,30.00,West,262,7.0,10.0,78,0.00,,,0.00,Wunderground v.1.15,2013-01-10 19:13:00,
2013-01-10 13:19:00,52.8,46.1,29.99,SW,229,7.0,10.0,78,0.00,,,0.00,Wunderground v.1.15,2013-01-10 19:19:00,
2013-01-10 13:24:00,52.9,46.2,29.99,West,261,7.0,10.0,78,0.00,,,0.00,Wunderground v.1.15,2013-01-10 19:24:00,
2013-01-10 13:30:00,53.3,45.9,30.00,West,267,7.0,10.0,76,0.00,,,0.00,Wunderground v.1.15,2013-01-10 19:30:00,
2013-01-10 13:36:00,53.4,46.7,30.00,SW,232,6.0,10.0,78,0.00,,,0.00,Wunderground v.1.15,2013-01-10 19:36:00,
2013-01-10 13:42:00,53.7,46.3,29.99,SW,231,6.0,9.0,76,0.00,,,0.00,Wunderground v.1.15,2013-01-10 19:42:00,
2013-01-10 13:48:00,53.8,46.4,29.99,WSW,255,7.0,10.0,76,0.00,,,0.00,Wunderground v.1.15,2013-01-10 19:48:00,
2013-01-10 13:54:00,54.2,46.8,29.99,WSW,250,7.0,10.0,76,0.00,,,0.00,Wunderground v.1.15,2013-01-10 19:54:00,
2013-01-10 14:00:00,54.3,46.2,29.99,SW,226,8.0,10.0,74,0.00,,,0.00,Wunderground v.1.15,2013-01-10 20:00:00,
2013-01-10 14:06:00,54.9,46.8,29.98,WSW,240,8.0,10.0,74,0.00,,,0.00,Wunderground v.1.15,2013-01-10 20:06:00,
2013-01-10 14:11:00,55.1,46.2,29.98,West,267,8.0,10.0,72,0.00,,,0.00,Wunderground v.1.15,2013-01-10 20:11:00,
2013-01-10 14:17:00,55.1,46.6,29.98,SW,236,6.0,10.0,73,0.00,,,0.00,Wunderground v.1.15,2013-01-10 20:17:00,
2013-01-10 14:23:00,55.2,47.1,29.98,WSW,241,6.0,10.0,74,0.00,,,0.00,Wunderground v.1.15,2013-01-10 20:23:00,
2013-01-10 14:29:00,55.9,47.0,29.98,NW,309,6.0,10.0,72,0.00,,,0.00,Wunderground v.1.15,2013-01-10 20:29:00,
2013-01-10 14:35:00,56.3,46.6,29.98,West,272,6.0,10.0,70,0.00,,,0.00,Wunderground v.1.15,2013-01-10 20:35:00,
2013-01-10 14:41:00,56.8,47.5,29.98,West,276,5.0,10.0,71,0.00,,,0.00,Wunderground v.1.15,2013-01-10 20:41:00,
2013-01-10 14:47:00,56.8,46.7,29.98,WSW,243,6.0,10.0,69,0.00,,,0.00,Wunderground v.1.15,2013-01-10 20:47:00,
2013-01-10 14:53:00,56.8,47.1,29.98,SW,229,7.0,10.0,70,0.00,,,0.00,Wunderground v.1.15,2013-01-10 20:53:00,
2013-01-10 14:59:00,57.0,47.7,29.98,West,260,6.0,10.0,71,0.00,,,0.00,Wunderground v.1.15,2013-01-10 20:59:00,
2013-01-10 15:05:00,57.2,47.1,29.98,SW,229,8.0,10.0,69,0.00,,,0.00,Wunderground v.1.15,2013-01-10 21:05:00,
2013-01-10 15:11:00,56.6,46.9,29.98,SW,226,8.0,10.0,70,0.00,,,0.00,Wunderground v.1.15,2013-01-10 21:11:00,
2013-01-10 15:17:00,56.5,47.2,29.98,SW,224,7.0,10.0,71,0.00,,,0.00,Wunderground v.1.15,2013-01-10 21:17:00,
2013-01-10 15:22:00,57.3,47.2,29.98,WSW,242,8.0,14.0,69,0.00,,,0.00,Wunderground v.1.15,2013-01-10 21:22:00,
2013-01-10 15:28:00,57.3,46.8,29.99,SW,226,9.0,14.0,68,0.00,,,0.00,Wunderground v.1.15,2013-01-10 21:28:00,
2013-01-10 15:33:00,57.1,47.0,29.99,WSW,245,7.0,10.0,69,0.00,,,0.00,Wunderground v.1.15,2013-01-10 21:33:00,
2013-01-10 15:39:00,57.3,47.2,29.99,West,259,7.0,10.0,69,0.00,,,0.00,Wunderground v.1.15,2013-01-10 21:39:00,
2013-01-10 15:45:00,57.6,47.1,29.99,WSW,255,8.0,10.0,68,0.00,,,0.00,Wunderground v.1.15,2013-01-10 21:45:00,
2013-01-10 15:51:00,57.2,47.1,29.99,WSW,239,8.0,10.0,69,0.00,,,0.00,Wunderground v.1.15,2013-01-10 21:51:00,
2013-01-10 15:57:00,57.2,46.7,29.99,WSW,255,8.0,10.0,68,0.00,,,0.00,Wunderground v.1.15,2013-01-10 21:57:00,
2013-01-10 16:03:00,57.1,47.0,29.99,WSW,247,8.0,10.0,69,0.00,,,0.00,Wunderground v.1.15,2013-01-10 22:03:00,
2013-01-10 16:09:00,57.1,46.6,29.99,WSW,243,9.0,10.0,68,0.00,,,0.00,Wunderground v.1.15,2013-01-10 22:09:00,
2013-01-10 16:15:00,57.2,47.1,29.99,WSW,246,7.0,10.0,69,0.00,,,0.00,Wunderground v.1.15,2013-01-10 22:15:00,
2013-01-10 16:20:00,58.0,47.5,29.99,WSW,258,5.0,10.0,68,0.00,,,0.00,Wunderground v.1.15,2013-01-10 22:20:00,
2013-01-10 16:25:00,58.5,47.2,29.99,WSW,245,6.0,10.0,66,0.00,,,0.00,Wunderground v.1.15,2013-01-10 22:25:00,
2013-01-10 16:31:00,58.7,47.4,29.99,WSW,249,8.0,10.0,66,0.00,,,0.00,Wunderground v.1.15,2013-01-10 22:31:00,
2013-01-10 16:36:00,58.4,46.7,29.99,WSW,246,7.0,11.0,65,0.00,,,0.00,Wunderground v.1.15,2013-01-10 22:36:00,
2013-01-10 16:41:00,58.6,46.9,30.00,WSW,241,9.0,11.0,65,0.00,,,0.00,Wunderground v.1.15,2013-01-10 22:41:00,
2013-01-10 16:47:00,58.7,46.5,30.00,West,276,9.0,11.0,64,0.00,,,0.00,Wunderground v.1.15,2013-01-10 22:47:00,
2013-01-10 16:53:00,58.7,46.5,30.00,WSW,248,8.0,10.0,64,0.00,,,0.00,Wunderground v.1.15,2013-01-10 22:53:00,
2013-01-10 16:59:00,58.7,46.5,30.00,WSW,248,7.0,10.0,64,0.00,,,0.00,Wunderground v.1.15,2013-01-10 22:59:00,
2013-01-10 17:04:00,58.8,47.1,30.00,SW,236,7.0,10.0,65,0.00,,,0.00,Wunderground v.1.15,2013-01-10 23:04:00,
2013-01-10 17:09:00,58.7,47.0,30.00,WSW,248,7.0,10.0,65,0.00,,,0.00,Wunderground v.1.15,2013-01-10 23:09:00,
2013-01-10 17:14:00,58.7,47.0,29.99,West,264,7.0,10.0,65,0.00,,,0.00,Wunderground v.1.15,2013-01-10 23:14:00,
2013-01-10 17:19:00,58.6,46.9,29.99,West,263,6.0,10.0,65,0.00,,,0.00,Wunderground v.1.15,2013-01-10 23:19:00,
2013-01-10 17:25:00,58.3,47.0,29.99,West,259,5.0,10.0,66,0.00,,,0.00,Wunderground v.1.15,2013-01-10 23:25:00,
2013-01-10 17:31:00,58.0,47.1,29.99,WSW,250,4.0,10.0,67,0.00,,,0.00,Wunderground v.1.15,2013-01-10 23:31:00,
2013-01-10 17:36:00,57.6,46.7,29.99,WSW,256,3.0,10.0,67,0.00,,,0.00,Wunderground v.1.15,2013-01-10 23:36:00,
2013-01-10 17:42:00,57.2,46.7,29.99,WSW,243,2.0,10.0,68,0.00,,,0.00,Wunderground v.1.15,2013-01-10 23:42:00,
2013-01-10 17:48:00,56.6,46.9,29.99,WSW,238,1.0,10.0,70,0.00,,,0.00,Wunderground v.1.15,2013-01-10 23:48:00,
2013-01-10 17:53:00,56.0,46.4,29.99,SW,233,1.0,10.0,70,0.00,,,0.00,Wunderground v.1.15,2013-01-10 23:53:00,
2013-01-10 17:58:00,55.3,46.4,29.99,SW,225,0.0,10.0,72,0.00,,,0.00,Wunderground v.1.15,2013-01-10 23:58:00,
2013-01-10 18:04:00,54.6,46.5,29.99,SW,224,0.0,10.0,74,0.00,,,0.00,Wunderground v.1.15,2013-01-11 00:04:00,
2013-01-10 18:09:00,54.1,46.3,29.99,SW,225,0.0,10.0,75,0.00,,,0.00,Wunderground v.1.15,2013-01-11 00:09:00,
2013-01-10 18:15:00,53.5,46.1,29.99,SW,225,0.0,10.0,76,0.00,,,0.00,Wunderground v.1.15,2013-01-11 00:15:00,
2013-01-10 18:21:00,52.9,46.2,29.99,SW,225,1.0,10.0,78,0.00,,,0.00,Wunderground v.1.15,2013-01-11 00:21:00,
2013-01-10 18:27:00,52.2,46.2,29.99,SW,224,1.0,10.0,80,0.00,,,0.00,Wunderground v.1.15,2013-01-11 00:27:00,
2013-01-10 18:32:00,51.6,46.0,29.99,SW,225,1.0,10.0,81,0.00,,,0.00,Wunderground v.1.15,2013-01-11 00:32:00,
2013-01-10 18:38:00,51.2,45.9,29.99,SW,225,1.0,10.0,82,0.00,,,0.00,Wunderground v.1.15,2013-01-11 00:38:00,
2013-01-10 18:44:00,50.9,45.9,29.99,SW,223,1.0,10.0,83,0.00,,,0.00,Wunderground v.1.15,2013-01-11 00:44:00,
2013-01-10 18:50:00,50.5,45.8,30.00,SW,224,1.0,10.0,84,0.00,,,0.00,Wunderground v.1.15,2013-01-11 00:50:00,
2013-01-10 18:56:00,50.1,45.5,30.00,SW,224,1.0,10.0,84,0.00,,,0.00,Wunderground v.1.15,2013-01-11 00:56:00,
2013-01-10 19:02:00,49.8,45.5,30.00,WSW,239,1.0,10.0,85,0.00,,,0.00,Wunderground v.1.15,2013-01-11 01:02:00,
2013-01-10 19:08:00,49.8,45.8,30.00,WSW,246,1.0,10.0,86,0.00,,,0.00,Wunderground v.1.15,2013-01-11 01:08:00,
2013-01-10 19:13:00,49.7,45.4,30.00,SW,226,1.0,10.0,85,0.00,,,0.00,Wunderground v.1.15,2013-01-11 01:13:00,
2013-01-10 19:19:00,49.2,45.2,30.00,SW,226,1.0,10.0,86,0.00,,,0.00,Wunderground v.1.15,2013-01-11 01:19:00,
2013-01-10 19:25:00,48.9,45.2,30.01,SW,226,1.0,10.0,87,0.00,,,0.00,Wunderground v.1.15,2013-01-11 01:25:00,
2013-01-10 19:31:00,48.9,45.5,30.00,WSW,246,1.0,10.0,88,0.00,,,0.00,Wunderground v.1.15,2013-01-11 01:31:00,
2013-01-10 19:37:00,49.0,45.3,30.00,SW,228,1.0,10.0,87,0.00,,,0.00,Wunderground v.1.15,2013-01-11 01:37:00,
2013-01-10 19:43:00,48.9,45.2,30.00,SW,225,1.0,10.0,87,0.00,,,0.00,Wunderground v.1.15,2013-01-11 01:43:00,
2013-01-10 19:49:00,48.5,44.8,30.00,SW,224,1.0,10.0,87,0.00,,,0.00,Wunderground v.1.15,2013-01-11 01:49:00,
2013-01-10 19:55:00,48.3,44.9,30.00,SW,231,1.0,10.0,88,0.00,,,0.00,Wunderground v.1.15,2013-01-11 01:55:00,
2013-01-10 20:01:00,48.5,44.8,29.99,SW,222,2.0,10.0,87,0.00,,,0.00,Wunderground v.1.15,2013-01-11 02:01:00,
2013-01-10 20:07:00,48.3,44.6,29.99,SW,224,2.0,10.0,87,0.00,,,0.00,Wunderground v.1.15,2013-01-11 02:07:00,
2013-01-10 20:13:00,48.2,44.8,30.00,SW,222,1.0,10.0,88,0.00,,,0.00,Wunderground v.1.15,2013-01-11 02:13:00,
2013-01-10 20:18:00,48.3,44.9,30.00,SW,226,1.0,10.0,88,0.00,,,0.00,Wunderground v.1.15,2013-01-11 02:18:00,
2013-01-10 20:24:00,48.3,44.6,30.00,WSW,245,1.0,10.0,87,0.00,,,0.00,Wunderground v.1.15,2013-01-11 02:24:00,
2013-01-10 20:30:00,48.3,44.6,30.00,SW,236,2.0,10.0,87,0.00,,,0.00,Wunderground v.1.15,2013-01-11 02:30:00,
2013-01-10 20:36:00,48.3,44.6,30.00,WSW,245,2.0,10.0,87,0.00,,,0.00,Wunderground v.1.15,2013-01-11 02:36:00,
2013-01-10 20:42:00,48.1,44.4,30.01,SW,233,3.0,10.0,87,0.00,,,0.00,Wunderground v.1.15,2013-01-11 02:42:00,
2013-01-10 20:48:00,48.1,44.4,30.00,SW,236,2.0,10.0,87,0.00,,,0.00,Wunderground v.1.15,2013-01-11 02:48:00,
2013-01-10 20:53:00,47.8,44.1,30.00,SW,227,2.0,10.0,87,0.00,,,0.00,Wunderground v.1.15,2013-01-11 02:53:00,
2013-01-10 20:59:00,47.3,43.9,30.00,SSW,211,2.0,10.0,88,0.00,,,0.00,Wunderground v.1.15,2013-01-11 02:59:00,
2013-01-10 21:05:00,46.9,43.8,30.00,WSW,240,2.0,10.0,89,0.00,,,0.00,Wunderground v.1.15,2013-01-11 03:05:00,
2013-01-10 21:11:00,46.9,43.8,30.00,SW,222,2.0,10.0,89,0.00,,,0.00,Wunderground v.1.15,2013-01-11 03:11:00,
2013-01-10 21:17:00,46.7,43.6,30.00,SW,221,2.0,10.0,89,0.00,,,0.00,Wunderground v.1.15,2013-01-11 03:17:00,
2013-01-10 21:22:00,46.5,43.4,30.00,SW,222,2.0,10.0,89,0.00,,,0.00,Wunderground v.1.15,2013-01-11 03:22:00,
2013-01-10 21:28:00,46.8,44.0,30.00,SW,228,3.0,10.0,90,0.00,,,0.00,Wunderground v.1.15,2013-01-11 03:28:00,
2013-01-10 21:34:00,47.5,44.4,30.00,SW,225,3.0,10.0,89,0.00,,,0.00,Wunderground v.1.15,2013-01-11 03:34:00,
2013-01-10 21:40:00,47.8,44.4,30.00,SW,217,3.0,3.0,88,0.00,,,0.00,Wunderground v.1.15,2013-01-11 03:40:00,
2013-01-10 21:46:00,47.7,44.3,30.00,SW,226,3.0,10.0,88,0.00,,,0.00,Wunderground v.1.15,2013-01-11 03:46:00,
2013-01-10 21:52:00,47.7,44.3,30.00,SW,228,3.0,10.0,88,0.00,,,0.00,Wunderground v.1.15,2013-01-11 03:52:00,
2013-01-10 21:57:00,47.9,44.2,30.00,WSW,243,3.0,10.0,87,0.00,,,0.00,Wunderground v.1.15,2013-01-11 03:57:00,
2013-01-10 22:03:00,48.2,44.2,30.00,SW,214,2.0,10.0,86,0.00,,,0.00,Wunderground v.1.15,2013-01-11 04:03:00,
2013-01-10 22:09:00,48.2,44.2,30.00,WSW,240,2.0,10.0,86,0.00,,,0.00,Wunderground v.1.15,2013-01-11 04:09:00,
2013-01-10 22:15:00,48.1,44.1,30.00,SW,233,1.0,10.0,86,0.00,,,0.00,Wunderground v.1.15,2013-01-11 04:15:00,
2013-01-10 22:21:00,47.9,43.9,30.00,WSW,240,2.0,10.0,86,0.00,,,0.00,Wunderground v.1.15,2013-01-11 04:21:00,
2013-01-10 22:27:00,48.0,44.0,30.00,West,263,3.0,10.0,86,0.00,,,0.00,Wunderground v.1.15,2013-01-11 04:27:00,
2013-01-10 22:33:00,48.0,44.0,30.00,WSW,256,4.0,10.0,86,0.00,,,0.00,Wunderground v.1.15,2013-01-11 04:33:00,
2013-01-10 22:39:00,48.0,44.0,30.00,SW,222,4.0,10.0,86,0.00,,,0.00,Wunderground v.1.15,2013-01-11 04:39:00,
2013-01-10 22:45:00,48.0,44.0,30.00,SW,229,4.0,10.0,86,0.00,,,0.00,Wunderground v.1.15,2013-01-11 04:45:00,
2013-01-10 22:51:00,48.0,44.3,30.00,SW,219,4.0,10.0,87,0.00,,,0.00,Wunderground v.1.15,2013-01-11 04:51:00,
2013-01-10 22:56:00,48.0,44.3,30.01,SW,226,5.0,10.0,87,0.00,,,0.00,Wunderground v.1.15,2013-01-11 04:56:00,
2013-01-10 23:01:00,47.9,44.2,30.01,SSW,211,5.0,10.0,87,0.00,,,0.00,Wunderground v.1.15,2013-01-11 05:01:00,
2013-01-10 23:02:00,47.9,44.2,30.01,SW,219,4.0,10.0,87,0.00,,,0.00,Wunderground v.1.15,2013-01-11 05:02:00,
2013-01-10 23:06:00,47.8,44.1,30.01,SW,236,4.0,10.0,87,0.00,,,0.00,Wunderground v.1.15,2013-01-11 05:06:00,
2013-01-10 23:09:00,47.7,44.0,30.01,SW,233,3.0,3.0,87,0.00,,,0.00,Wunderground v.1.15,2013-01-11 05:09:00,
2013-01-10 23:15:00,47.5,43.8,30.01,SW,231,3.0,10.0,87,0.00,,,0.00,Wunderground v.1.15,2013-01-11 05:15:00,
2013-01-10 23:21:00,47.3,43.6,30.01,SW,214,3.0,10.0,87,0.00,,,0.00,Wunderground v.1.15,2013-01-11 05:21:00,
2013-01-10 23:27:00,47.1,43.7,30.01,SW,225,3.0,10.0,88,0.00,,,0.00,Wunderground v.1.15,2013-01-11 05:27:00,
2013-01-10 23:33:00,47.0,43.6,30.00,SW,214,3.0,10.0,88,0.00,,,0.00,Wunderground v.1.15,2013-01-11 05:33:00,
2013-01-10 23:39:00,46.9,43.5,30.00,SW,222,4.0,10.0,88,0.00,,,0.00,Wunderground v.1.15,2013-01-11 05:39:00,
2013-01-10 23:44:00,47.0,43.6,30.00,SW,232,4.0,10.0,88,0.00,,,0.00,Wunderground v.1.15,2013-01-11 05:44:00,
2013-01-10 23:50:00,47.2,43.5,30.00,WSW,243,4.0,10.0,87,0.00,,,0.00,Wunderground v.1.15,2013-01-11 05:50:00,
2013-01-10 23:56:00,47.7,43.7,29.99,WSW,240,5.0,10.0,86,0.00,,,0.00,Wunderground v.1.15,2013-01-11 05:56:00,